Time;durP1;ratioP1;P1;durP2;ratioP2;P2;SDS_P1;SDS_P2;PMS_P1;PMS_P2;Temp;Humidity;BMP_temperature;BMP_pressure;BME280_temperature;BME280_humidity;BME280_pressure;Samples;Min_cycle;Max_cycle;Signal;HPM_P1;HPM_P2
2023/02/17 00:00:07;;;;;;;308.38;130.02;;;-2.70;99.90;;;;;;5031050;28;20068;-81
2023/02/17 00:02:38;;;;;;;360.02;150.13;;;-2.70;99.90;;;;;;5031935;28;20109;-81
2023/02/17 00:05:05;;;;;;;313.58;132.27;;;-2.70;99.90;;;;;;5029960;28;20025;-81
2023/02/17 00:07:34;;;;;;;321.90;132.75;;;-2.70;99.90;;;;;;5011986;28;20117;-80
2023/02/17 00:09:59;;;;;;;327.00;136.88;;;-2.70;99.90;;;;;;5012901;28;20030;-80
2023/02/17 00:12:25;;;;;;;264.20;111.30;;;-2.80;99.90;;;;;;5011686;28;20022;-81
2023/02/17 00:14:51;;;;;;;211.68;91.60;;;-2.70;99.90;;;;;;5011068;28;20112;-80
2023/02/17 00:17:17;;;;;;;235.23;93.45;;;-2.70;99.90;;;;;;5012955;28;20022;-80
2023/02/17 00:19:42;;;;;;;178.82;77.45;;;-2.70;99.90;;;;;;5012876;28;20067;-82
2023/02/17 00:22:08;;;;;;;198.07;84.85;;;-2.70;99.90;;;;;;5010969;28;20026;-81
2023/02/17 00:24:37;;;;;;;218.82;90.25;;;-2.70;99.90;;;;;;5012846;28;20025;-80
2023/02/17 00:27:04;;;;;;;217.63;89.97;;;-2.70;99.90;;;;;;5012397;28;20080;-81
2023/02/17 00:29:29;;;;;;;233.60;94.70;;;-2.70;99.90;;;;;;4995398;28;20034;-80
2023/02/17 00:31:55;;;;;;;231.93;99.18;;;-2.70;99.90;;;;;;5012377;28;20026;-80
2023/02/17 00:34:21;;;;;;;239.75;97.50;;;-2.70;99.90;;;;;;5011609;28;20038;-80
2023/02/17 00:36:47;;;;;;;255.07;106.78;;;-2.60;99.90;;;;;;5011591;28;20045;-80
2023/02/17 00:39:14;;;;;;;236.95;105.30;;;-2.70;99.90;;;;;;5011085;28;20038;-80
2023/02/17 00:41:39;;;;;;;220.52;99.18;;;-2.60;99.90;;;;;;5012183;28;20506;-80
2023/02/17 00:44:05;;;;;;;217.82;103.07;;;-2.60;99.90;;;;;;5012523;28;20029;-80
2023/02/17 00:46:31;;;;;;;219.25;97.70;;;-2.70;99.90;;;;;;5012056;28;20030;-80
2023/02/17 00:48:57;;;;;;;235.73;104.10;;;-2.60;99.90;;;;;;5012556;28;20022;-80
2023/02/17 00:51:22;;;;;;;234.07;98.60;;;-2.60;99.90;;;;;;5011210;28;20022;-81
2023/02/17 00:53:48;;;;;;;211.18;91.00;;;-2.60;99.90;;;;;;5011086;28;20018;-81
2023/02/17 00:56:14;;;;;;;174.23;73.72;;;-2.60;99.90;;;;;;5011019;28;20061;-81
2023/02/17 00:58:40;;;;;;;189.85;80.25;;;-2.60;99.90;;;;;;5012348;28;20425;-81
2023/02/17 01:01:06;;;;;;;156.43;71.97;;;-2.50;99.90;;;;;;5011564;28;20058;-81
2023/02/17 01:03:32;;;;;;;143.48;64.57;;;-2.50;99.90;;;;;;5012083;28;20065;-81
2023/02/17 01:05:57;;;;;;;130.93;59.97;;;-2.40;99.90;;;;;;5011958;28;20053;-81
2023/02/17 01:08:24;;;;;;;148.18;65.07;;;-2.40;99.90;;;;;;5010849;28;20063;-81
2023/02/17 01:10:51;;;;;;;142.40;63.85;;;-2.30;99.90;;;;;;5010730;28;20037;-81
2023/02/17 01:13:18;;;;;;;196.32;82.55;;;-2.30;99.90;;;;;;5011085;28;20033;-81
2023/02/17 01:15:50;;;;;;;171.18;75.72;;;-2.20;99.90;;;;;;5011652;28;20041;-81
2023/02/17 01:18:18;;;;;;;185.00;78.45;;;-2.20;99.90;;;;;;5011916;28;20387;-82
2023/02/17 01:20:44;;;;;;;137.10;58.80;;;-2.20;99.90;;;;;;5010065;28;20037;-81
2023/02/17 01:23:11;;;;;;;145.82;64.00;;;-2.20;99.90;;;;;;5010724;28;20025;-81
2023/02/17 01:25:43;;;;;;;159.45;72.68;;;-2.20;99.90;;;;;;5010325;28;20083;-81
2023/02/17 01:28:14;;;;;;;177.90;77.90;;;-2.20;99.90;;;;;;5012166;28;20030;-81
2023/02/17 01:30:39;;;;;;;198.07;89.25;;;-2.20;99.90;;;;;;5009858;28;20025;-82
2023/02/17 01:33:05;;;;;;;171.13;79.30;;;-2.20;99.90;;;;;;5010367;28;20026;-81
2023/02/17 01:35:33;;;;;;;152.45;70.57;;;-2.30;99.90;;;;;;5027566;28;20415;-81
2023/02/17 01:37:59;;;;;;;150.63;69.53;;;-2.30;99.90;;;;;;5031495;28;20034;-81
2023/02/17 01:40:24;;;;;;;155.13;70.47;;;-2.30;99.90;;;;;;5030933;28;20050;-79
2023/02/17 01:42:50;;;;;;;180.02;85.60;;;-2.30;99.90;;;;;;5031651;28;20022;-79
2023/02/17 01:45:18;;;;;;;172.13;79.95;;;-2.30;99.90;;;;;;5031338;28;20026;-79
2023/02/17 01:47:57;;;;;;;167.93;75.07;;;-2.30;99.90;;;;;;5030269;28;20025;-79
2023/02/17 01:50:45;;;;;;;163.95;70.90;;;-2.30;99.90;;;;;;5030000;28;20033;-79
2023/02/17 01:53:15;;;;;;;133.43;64.70;;;-2.20;99.90;;;;;;5029970;28;20134;-79
2023/02/17 01:55:42;;;;;;;132.05;60.50;;;-2.20;99.90;;;;;;5029417;28;20049;-79
2023/02/17 01:58:11;;;;;;;129.85;57.10;;;-2.10;99.90;;;;;;5031238;28;20382;-79
2023/02/17 02:00:38;;;;;;;134.52;60.38;;;-2.10;99.90;;;;;;5029394;28;20053;-79
2023/02/17 02:03:07;;;;;;;140.40;61.35;;;-2.10;99.90;;;;;;5031182;28;20097;-79
2023/02/17 02:05:33;;;;;;;137.95;66.85;;;-2.00;99.90;;;;;;5029450;28;20073;-79
2023/02/17 02:07:59;;;;;;;154.52;73.45;;;-2.00;99.90;;;;;;5029824;28;20053;-79
2023/02/17 02:10:25;;;;;;;133.93;57.25;;;-2.00;99.90;;;;;;5030659;28;20021;-80
2023/02/17 02:12:50;;;;;;;151.80;66.13;;;-1.90;99.90;;;;;;5029744;28;20021;-81
2023/02/17 02:15:22;;;;;;;161.80;77.18;;;-1.90;99.90;;;;;;5029062;28;20458;-81
2023/02/17 02:18:08;;;;;;;151.93;71.43;;;-1.80;99.90;;;;;;5031126;28;20033;-80
2023/02/17 02:20:54;;;;;;;159.98;74.13;;;-1.90;99.90;;;;;;5029001;28;20040;-81
2023/02/17 02:23:41;;;;;;;140.27;66.03;;;-1.80;99.90;;;;;;5029807;28;20360;-79
2023/02/17 02:26:35;;;;;;;172.07;74.78;;;-1.80;99.90;;;;;;5030379;28;20043;-81
2023/02/17 02:29:19;;;;;;;139.77;65.28;;;-1.80;99.90;;;;;;5031048;28;20028;-81
2023/02/17 02:32:15;;;;;;;206.48;90.60;;;-1.80;99.90;;;;;;5029213;28;20022;-81
2023/02/17 02:34:46;;;;;;;144.23;64.97;;;-1.80;99.90;;;;;;5029302;28;20025;-80
2023/02/17 02:37:16;;;;;;;137.05;59.58;;;-1.70;99.90;;;;;;5030125;28;20014;-81
2023/02/17 02:39:47;;;;;;;129.93;59.88;;;-1.70;99.90;;;;;;5029060;28;20037;-81
2023/02/17 02:42:19;;;;;;;134.75;58.25;;;-1.60;99.90;;;;;;5030209;28;20126;-81
2023/02/17 02:44:44;;;;;;;123.45;55.88;;;-1.60;99.90;;;;;;5028718;28;20024;-80
2023/02/17 02:47:43;;;;;;;140.60;59.97;;;-1.50;99.90;;;;;;5030004;28;20021;-82
2023/02/17 02:50:12;;;;;;;121.25;54.28;;;-1.50;99.90;;;;;;5026790;28;20033;-81
2023/02/17 02:53:07;;;;;;;132.80;61.92;;;-1.40;99.90;;;;;;5027447;28;20466;-81
2023/02/17 02:55:53;;;;;;;121.38;51.30;;;-1.40;99.90;;;;;;5028664;28;20052;-82
2023/02/17 02:58:32;;;;;;;130.30;54.58;;;-1.40;99.90;;;;;;5028892;28;20077;-82
2023/02/17 03:01:19;;;;;;;119.65;53.58;;;-1.40;99.90;;;;;;5029001;28;20083;-82
2023/02/17 03:04:02;;;;;;;139.40;59.17;;;-1.40;99.90;;;;;;5028946;28;20022;-82
2023/02/17 03:06:35;;;;;;;;;;;-1.40;99.90;;;;;;5030448;28;20505;-82
2023/02/17 03:09:13;;;;;;;130.80;62.25;;;-1.40;99.90;;;;;;5029040;28;19909;-81
2023/02/17 03:11:40;;;;;;;127.30;56.13;;;-1.40;99.90;;;;;;5029848;28;20026;-79
2023/02/17 03:14:09;;;;;;;116.78;52.70;;;-1.40;99.90;;;;;;5030418;28;20410;-79
2023/02/17 03:16:36;;;;;;;121.22;50.55;;;-1.50;99.90;;;;;;5029577;28;20053;-79
2023/02/17 03:19:03;;;;;;;109.40;49.38;;;-1.40;99.90;;;;;;5028911;28;20471;-79
2023/02/17 03:21:39;;;;;;;112.70;47.90;;;-1.50;99.90;;;;;;5029790;28;20116;-80
2023/02/17 03:24:05;;;;;;;103.60;51.95;;;-1.50;99.90;;;;;;5028691;28;20117;-80
2023/02/17 03:26:31;;;;;;;109.13;49.20;;;-1.50;99.90;;;;;;5029056;28;20604;-79
2023/02/17 03:28:56;;;;;;;116.32;51.72;;;-1.50;99.90;;;;;;5028724;28;20058;-79
2023/02/17 03:31:22;;;;;;;125.40;47.67;;;-1.60;99.90;;;;;;5028099;28;20030;-79
2023/02/17 03:33:48;;;;;;;117.22;48.17;;;-1.60;99.90;;;;;;5028650;28;20017;-79
2023/02/17 03:36:13;;;;;;;124.43;49.78;;;-1.60;99.90;;;;;;5020805;28;20396;-79
2023/02/17 03:38:39;;;;;;;110.18;50.17;;;-1.60;99.90;;;;;;5008801;28;20033;-79
2023/02/17 03:41:05;;;;;;;112.10;50.03;;;-1.60;99.90;;;;;;5009669;28;20038;-79
2023/02/17 03:43:30;;;;;;;112.10;50.65;;;-1.60;99.90;;;;;;5010130;28;20026;-80
2023/02/17 03:45:56;;;;;;;122.57;55.05;;;-1.60;99.90;;;;;;5009680;28;20026;-80
2023/02/17 03:48:21;;;;;;;119.82;53.25;;;-1.60;99.90;;;;;;5010229;28;20079;-80
2023/02/17 03:50:47;;;;;;;120.50;54.22;;;-1.60;99.90;;;;;;5009851;28;20375;-79
2023/02/17 03:53:13;;;;;;;126.55;54.55;;;-1.70;99.90;;;;;;5009022;28;20028;-79
2023/02/17 03:55:38;;;;;;;120.03;56.08;;;-1.70;99.90;;;;;;5029148;28;20026;-79
2023/02/17 03:58:04;;;;;;;119.50;56.08;;;-1.70;99.90;;;;;;5031854;28;20033;-79
2023/02/17 04:00:30;;;;;;;120.65;55.88;;;-1.70;99.90;;;;;;5031142;28;20046;-79
2023/02/17 04:02:58;;;;;;;126.55;56.15;;;-1.70;99.90;;;;;;5032980;28;20489;-80
2023/02/17 04:05:24;;;;;;;133.75;61.53;;;-1.70;99.90;;;;;;5030642;28;20022;-81
2023/02/17 04:07:50;;;;;;;123.38;58.88;;;-1.70;99.90;;;;;;5013393;28;20078;-80
2023/02/17 04:10:15;;;;;;;143.68;63.60;;;-1.80;99.90;;;;;;5011717;28;20014;-80
2023/02/17 04:12:41;;;;;;;144.18;65.28;;;-1.70;99.90;;;;;;5011540;28;20482;-80
2023/02/17 04:15:07;;;;;;;151.15;62.85;;;-1.80;99.90;;;;;;5013221;28;20033;-79
2023/02/17 04:17:36;;;;;;;156.57;69.07;;;-1.80;99.90;;;;;;5011648;28;20555;-81
2023/02/17 04:20:02;;;;;;;163.40;72.60;;;-1.80;99.90;;;;;;5012681;28;20114;-82
2023/02/17 04:22:28;;;;;;;169.60;76.20;;;-1.80;99.90;;;;;;5013027;28;20022;-81
2023/02/17 04:24:54;;;;;;;171.40;75.25;;;-1.70;99.90;;;;;;5013293;28;20033;-81
2023/02/17 04:27:19;;;;;;;165.32;75.85;;;-1.70;99.90;;;;;;5031790;28;20459;-81
2023/02/17 04:29:45;;;;;;;151.00;68.40;;;-1.60;99.90;;;;;;5032382;28;20071;-80
2023/02/17 04:32:10;;;;;;;163.55;73.57;;;-1.60;99.90;;;;;;5032203;28;20494;-80
2023/02/17 04:34:36;;;;;;;163.32;68.95;;;-1.60;99.90;;;;;;5031333;28;20466;-80
2023/02/17 04:37:01;;;;;;;143.05;65.30;;;-1.60;99.90;;;;;;5031170;28;20467;-80
2023/02/17 04:39:27;;;;;;;148.32;66.70;;;-1.50;99.90;;;;;;5031148;28;20094;-80
2023/02/17 04:41:53;;;;;;;163.32;74.95;;;-1.50;99.90;;;;;;5030444;28;20021;-81
2023/02/17 04:44:18;;;;;;;150.07;68.65;;;-1.40;99.90;;;;;;5032098;28;20409;-80
2023/02/17 04:46:44;;;;;;;161.55;68.07;;;-1.40;99.90;;;;;;5030534;28;20022;-80
2023/02/17 04:49:09;;;;;;;149.70;69.57;;;-1.30;99.90;;;;;;5031306;28;20439;-80
2023/02/17 04:51:35;;;;;;;160.73;71.78;;;-1.30;99.90;;;;;;5020547;28;20109;-80
2023/02/17 04:54:00;;;;;;;139.25;67.45;;;-1.30;99.90;;;;;;5012400;28;20022;-80
2023/02/17 04:56:26;;;;;;;158.65;66.60;;;-1.20;99.90;;;;;;5010695;28;20492;-80
2023/02/17 04:58:52;;;;;;;149.27;69.47;;;-1.20;99.90;;;;;;5012626;28;20029;-80
2023/02/17 05:01:17;;;;;;;143.70;66.82;;;-1.20;99.90;;;;;;5010613;28;20151;-80
2023/02/17 05:03:43;;;;;;;153.63;68.80;;;-1.20;99.90;;;;;;5012307;28;20061;-80
2023/02/17 05:06:08;;;;;;;156.70;70.45;;;-1.20;99.90;;;;;;5010509;28;20048;-80
2023/02/17 05:08:34;;;;;;;146.20;65.28;;;-1.10;99.90;;;;;;5010907;28;20026;-80
2023/02/17 05:11:00;;;;;;;137.10;59.03;;;-1.00;99.90;;;;;;5020725;28;20021;-80
2023/02/17 05:13:26;;;;;;;135.43;59.70;;;-0.90;99.90;;;;;;5031666;28;20033;-80
2023/02/17 05:15:52;;;;;;;136.38;56.22;;;-0.80;99.90;;;;;;5031391;28;20412;-80
2023/02/17 05:18:17;;;;;;;122.45;58.30;;;-0.70;99.90;;;;;;5031702;28;20021;-80
2023/02/17 05:20:43;;;;;;;121.55;52.58;;;-0.70;99.90;;;;;;5029607;28;20040;-80
2023/02/17 05:23:09;;;;;;;137.18;57.00;;;-0.60;99.90;;;;;;5031790;28;20029;-80
2023/02/17 05:25:34;;;;;;;124.38;56.50;;;-0.60;99.90;;;;;;5029954;28;20017;-80
2023/02/17 05:28:00;;;;;;;117.38;51.60;;;-0.50;99.90;;;;;;5030743;28;20075;-80
2023/02/17 05:30:26;;;;;;;123.05;54.30;;;-0.40;99.90;;;;;;5024307;28;20089;-80
2023/02/17 05:32:51;;;;;;;122.68;56.55;;;-0.40;99.90;;;;;;5010564;28;20022;-80
2023/02/17 05:35:17;;;;;;;131.82;59.60;;;-0.30;99.90;;;;;;5011379;28;20101;-81
2023/02/17 05:37:43;;;;;;;127.40;55.75;;;-0.30;99.90;;;;;;5010590;28;20360;-82
2023/02/17 05:40:10;;;;;;;117.40;56.95;;;-0.20;99.90;;;;;;5011580;28;20087;-81
2023/02/17 05:42:36;;;;;;;119.13;54.97;;;-0.20;99.90;;;;;;5010310;28;20138;-81
2023/02/17 05:45:02;;;;;;;113.70;51.13;;;-0.20;99.90;;;;;;5011442;28;20049;-81
2023/02/17 05:47:27;;;;;;;105.07;52.00;;;-0.20;99.90;;;;;;5011214;28;20488;-81
2023/02/17 05:49:53;;;;;;;115.28;51.05;;;-0.20;99.90;;;;;;5011609;28;20053;-80
2023/02/17 05:52:19;;;;;;;112.93;54.72;;;-0.20;99.90;;;;;;5010214;28;20116;-82
2023/02/17 05:54:44;;;;;;;127.97;59.33;;;-0.20;99.90;;;;;;5011477;28;20494;-79
2023/02/17 05:57:10;;;;;;;119.25;56.70;;;-0.20;99.90;;;;;;5011393;28;20060;-79
2023/02/17 05:59:36;;;;;;;130.93;56.28;;;-0.20;99.90;;;;;;5011023;28;20045;-79
2023/02/17 06:02:01;;;;;;;123.82;59.17;;;-0.20;99.90;;;;;;5011259;28;20025;-79
2023/02/17 06:04:27;;;;;;;150.07;65.65;;;-0.20;99.90;;;;;;5021627;28;20021;-79
2023/02/17 06:06:52;;;;;;;133.88;59.80;;;-0.20;99.90;;;;;;5029458;28;20025;-79
2023/02/17 06:09:18;;;;;;;154.63;68.50;;;-0.20;99.90;;;;;;5029746;28;20026;-79
2023/02/17 06:11:44;;;;;;;149.68;68.40;;;-0.20;99.90;;;;;;5029233;28;20378;-79
2023/02/17 06:14:09;;;;;;;133.13;63.10;;;-0.20;99.90;;;;;;5028508;28;20478;-79
2023/02/17 06:16:35;;;;;;;138.07;65.20;;;-0.20;99.90;;;;;;5010665;28;20026;-79
2023/02/17 06:19:01;;;;;;;145.90;70.32;;;-0.20;99.90;;;;;;5011795;28;20030;-79
2023/02/17 06:21:27;;;;;;;147.48;61.08;;;-0.20;99.90;;;;;;5017901;28;20093;-79
2023/02/17 06:23:53;;;;;;;159.60;67.63;;;-0.20;99.90;;;;;;5029752;28;20025;-80
2023/02/17 06:26:19;;;;;;;142.20;63.05;;;-0.30;99.90;;;;;;5028839;28;20032;-79
2023/02/17 06:28:45;;;;;;;166.45;67.25;;;-0.20;99.90;;;;;;5030304;28;20478;-79
2023/02/17 06:31:10;;;;;;;628.05;295.42;;;-0.30;99.90;;;;;;5028918;28;20025;-79
2023/02/17 06:33:36;;;;;;;450.67;195.82;;;-0.30;99.90;;;;;;5028999;28;20030;-80
2023/02/17 06:36:01;;;;;;;391.00;162.43;;;-0.20;99.90;;;;;;5028621;28;20021;-80
2023/02/17 06:38:27;;;;;;;257.60;110.82;;;-0.20;99.90;;;;;;5014655;28;20466;-80
2023/02/17 06:40:53;;;;;;;303.13;125.43;;;-0.20;99.90;;;;;;5023966;28;20053;-79
2023/02/17 06:43:19;;;;;;;292.85;125.75;;;-0.10;99.90;;;;;;5009548;28;20032;-79
2023/02/17 06:45:45;;;;;;;251.35;109.78;;;-0.10;99.90;;;;;;5008905;28;20018;-79
2023/02/17 06:48:10;;;;;;;280.65;122.70;;;0.00;99.90;;;;;;5010771;28;20022;-79
2023/02/17 06:50:37;;;;;;;251.70;109.97;;;0.00;99.90;;;;;;5008879;28;20026;-80
2023/02/17 06:53:02;;;;;;;206.23;89.90;;;0.10;99.90;;;;;;5009695;28;20026;-80
2023/02/17 06:55:28;;;;;;;154.52;69.07;;;0.20;99.90;;;;;;5015122;28;20024;-80
2023/02/17 06:57:54;;;;;;;141.65;64.05;;;0.20;99.90;;;;;;5012533;28;20026;-80
2023/02/17 07:00:20;;;;;;;127.60;61.33;;;0.20;99.90;;;;;;5008051;28;20050;-79
2023/02/17 07:02:45;;;;;;;143.65;62.30;;;0.30;99.90;;;;;;5013630;28;20394;-80
2023/02/17 07:05:11;;;;;;;136.00;60.92;;;0.40;99.90;;;;;;5009170;28;20021;-79
2023/02/17 07:07:37;;;;;;;123.65;59.38;;;0.40;99.90;;;;;;5008322;28;20022;-79
2023/02/17 07:10:03;;;;;;;124.05;58.05;;;0.50;99.90;;;;;;5012639;28;20023;-80
2023/02/17 07:12:29;;;;;;;130.85;59.10;;;0.50;99.90;;;;;;5030000;28;20021;-80
2023/02/17 07:14:55;;;;;;;127.47;62.65;;;0.60;99.90;;;;;;5027566;28;20173;-80
2023/02/17 07:17:20;;;;;;;127.97;60.70;;;0.70;99.90;;;;;;5029915;28;20074;-80
2023/02/17 07:19:46;;;;;;;111.18;52.50;;;0.70;99.90;;;;;;5027868;28;20116;-80
2023/02/17 07:22:12;;;;;;;103.85;50.35;;;0.70;99.90;;;;;;5011250;28;20114;-80
2023/02/17 07:24:37;;;;;;;99.80;47.70;;;0.80;99.90;;;;;;5007085;28;20019;-80
2023/02/17 07:27:05;;;;;;;90.57;42.88;;;0.90;99.90;;;;;;5006779;28;20166;-80
2023/02/17 07:29:30;;;;;;;98.30;46.03;;;1.00;99.90;;;;;;5008378;28;20029;-80
2023/02/17 07:31:56;;;;;;;99.75;47.38;;;1.10;99.90;;;;;;5008540;28;20471;-80
2023/02/17 07:34:22;;;;;;;95.82;45.65;;;1.10;99.90;;;;;;5010829;28;20388;-80
2023/02/17 07:36:47;;;;;;;95.90;47.35;;;1.20;99.90;;;;;;5012130;28;20402;-81
2023/02/17 07:39:13;;;;;;;97.47;43.85;;;1.30;99.90;;;;;;5012316;28;20022;-80
2023/02/17 07:41:38;;;;;;;108.93;51.00;;;1.40;99.90;;;;;;5013266;28;20034;-80
2023/02/17 07:44:04;;;;;;;188.82;84.88;;;1.50;99.90;;;;;;5012488;28;20026;-80
2023/02/17 07:46:30;;;;;;;221.23;106.13;;;1.60;99.90;;;;;;5011933;28;20546;-80
2023/02/17 07:48:56;;;;;;;205.18;101.20;;;1.60;99.90;;;;;;5012304;28;20026;-80
2023/02/17 07:51:23;;;;;;;195.80;95.82;;;1.70;99.90;;;;;;5011807;28;20026;-80
2023/02/17 07:53:49;;;;;;;149.65;74.10;;;1.80;99.90;;;;;;5012256;28;20030;-80
2023/02/17 07:56:16;;;;;;;157.85;74.75;;;1.80;99.90;;;;;;5024061;28;20053;-80
2023/02/17 07:58:43;;;;;;;160.68;79.63;;;1.90;99.90;;;;;;5033528;28;20045;-80
2023/02/17 08:01:12;;;;;;;164.45;81.05;;;2.00;99.90;;;;;;5031317;28;20140;-77
2023/02/17 08:03:38;;;;;;;190.60;89.43;;;2.10;99.90;;;;;;5031709;28;20018;-77
2023/02/17 08:06:07;;;;;;;190.90;87.82;;;2.20;99.90;;;;;;5032458;28;20389;-78
2023/02/17 08:14:01;;;;;;;121.63;62.33;;;2.50;99.90;;;;;;5026480;28;20095;-78
2023/02/17 08:16:27;;;;;;;135.52;68.93;;;2.60;99.90;;;;;;5011684;28;20025;-78
2023/02/17 08:18:56;;;;;;;130.10;66.40;;;2.70;99.90;;;;;;5011849;28;20033;-78
2023/02/17 08:21:23;;;;;;;152.93;71.82;;;2.70;99.90;;;;;;5011429;28;20069;-79
2023/02/17 08:23:49;;;;;;;145.40;66.22;;;2.80;99.90;;;;;;5012965;28;20030;-78
2023/02/17 08:26:16;;;;;;;138.38;66.55;;;2.90;99.90;;;;;;5012632;28;20029;-78
2023/02/17 08:28:42;;;;;;;106.35;52.17;;;3.00;99.90;;;;;;5012938;28;20494;-77
2023/02/17 08:31:24;;;;;;;89.50;46.35;;;3.10;99.90;;;;;;5022828;28;20416;-78
2023/02/17 08:33:50;;;;;;;84.43;38.38;;;3.20;99.90;;;;;;5031268;28;20029;-77
2023/02/17 08:36:16;;;;;;;77.15;40.42;;;3.30;99.90;;;;;;5031844;28;20041;-78
2023/02/17 08:38:43;;;;;;;76.90;38.50;;;3.40;99.90;;;;;;5032405;28;20382;-78
2023/02/17 08:41:41;;;;;;;84.82;40.83;;;3.50;99.90;;;;;;5032195;28;20513;-78
2023/02/17 08:44:11;;;;;;;68.13;36.58;;;3.70;99.90;;;;;;4988391;28;20041;-78
2023/02/17 08:46:37;;;;;;;67.90;33.90;;;3.70;99.90;;;;;;5016773;28;20022;-78
2023/02/17 08:49:04;;;;;;;72.72;34.60;;;3.70;99.90;;;;;;5012475;28;20029;-78
2023/02/17 08:51:30;;;;;;;66.93;32.30;;;3.80;99.90;;;;;;5010802;28;20115;-78
2023/02/17 08:53:59;;;;;;;61.55;31.63;;;3.90;99.90;;;;;;5012601;28;20057;-78
2023/02/17 08:56:26;;;;;;;66.60;34.60;;;3.90;99.90;;;;;;5024466;28;20470;-78
2023/02/17 08:58:52;;;;;;;57.75;31.85;;;3.90;99.90;;;;;;5032190;28;20378;-79
2023/02/17 09:01:19;;;;;;;64.63;33.35;;;3.90;99.90;;;;;;5030154;28;20058;-78
2023/02/17 09:03:46;;;;;;;58.75;29.92;;;3.90;99.90;;;;;;5031163;28;20022;-78
2023/02/17 09:06:12;;;;;;;56.13;28.73;;;4.00;99.90;;;;;;5031586;28;20117;-78
2023/02/17 09:08:39;;;;;;;54.72;28.85;;;4.00;99.90;;;;;;5031981;28;20081;-78
2023/02/17 09:11:06;;;;;;;52.92;29.13;;;4.10;99.90;;;;;;5031436;28;20017;-78
2023/02/17 09:13:32;;;;;;;52.63;29.73;;;4.10;99.90;;;;;;5030695;28;20026;-78
2023/02/17 09:15:58;;;;;;;46.33;25.42;;;4.10;99.90;;;;;;5031265;28;20436;-78
2023/02/17 09:18:24;;;;;;;46.20;26.27;;;4.20;99.90;;;;;;5031837;28;20025;-78
2023/02/17 09:20:50;;;;;;;51.20;25.80;;;4.20;99.90;;;;;;5031217;28;20043;-79
2023/02/17 09:23:16;;;;;;;44.83;24.25;;;4.30;99.90;;;;;;5030623;28;20033;-78
2023/02/17 09:25:41;;;;;;;48.88;26.02;;;4.30;99.90;;;;;;5026973;28;20018;-78
2023/02/17 09:28:07;;;;;;;51.13;28.05;;;4.40;99.90;;;;;;5011875;28;20101;-78
2023/02/17 09:30:33;;;;;;;57.70;27.33;;;4.40;99.90;;;;;;5010221;28;20022;-78
2023/02/17 09:32:59;;;;;;;46.80;25.50;;;4.40;99.90;;;;;;5028746;28;20058;-79
2023/02/17 09:35:25;;;;;;;49.25;25.38;;;4.40;99.90;;;;;;5031330;28;20029;-78
2023/02/17 09:37:51;;;;;;;42.65;23.65;;;4.50;99.90;;;;;;5031471;28;20021;-78
2023/02/17 09:40:22;;;;;;;39.92;22.30;;;4.60;99.90;;;;;;5030945;28;20032;-78
2023/02/17 09:42:48;;;;;;;50.95;25.73;;;4.60;99.90;;;;;;5031321;28;20545;-78
2023/02/17 09:45:20;;;;;;;45.85;25.98;;;4.70;99.90;;;;;;5029667;28;20029;-78
2023/02/17 09:47:50;;;;;;;46.30;26.13;;;4.70;99.90;;;;;;5031517;28;20498;-78
2023/02/17 09:50:20;;;;;;;40.03;22.17;;;4.80;99.90;;;;;;5031177;28;20047;-78
2023/02/17 09:53:38;;;;;;;39.53;22.73;;;4.80;99.90;;;;;;5010219;28;20056;-78
2023/02/17 09:56:07;;;;;;;46.92;23.17;;;4.90;99.90;;;;;;5041873;28;20017;-78
2023/02/17 09:58:40;;;;;;;44.22;22.98;;;4.90;99.90;;;;;;5014485;28;20490;-78
2023/02/17 10:01:11;;;;;;;42.15;22.33;;;4.90;99.90;;;;;;5021886;28;20052;-78
2023/02/17 10:04:01;;;;;;;43.72;23.90;;;4.90;99.90;;;;;;5030973;28;20022;-78
2023/02/17 10:06:43;;;;;;;42.78;22.63;;;5.00;99.90;;;;;;5030691;28;20033;-78
2023/02/17 10:09:22;;;;;;;44.38;25.50;;;5.00;99.90;;;;;;5029140;28;20041;-78
2023/02/17 10:12:24;;;;;;;41.22;21.80;;;5.00;99.90;;;;;;5030151;28;20474;-79
2023/02/17 10:14:58;;;;;;;46.33;23.95;;;5.10;99.90;;;;;;5050788;28;20037;-78
2023/02/17 10:17:52;;;;;;;50.28;23.55;;;5.20;99.90;;;;;;5030886;28;20390;-78
2023/02/17 10:20:35;;;;;;;41.70;21.52;;;5.20;99.90;;;;;;5030554;28;20112;-78
2023/02/17 10:23:12;;;;;;;;;;;5.20;99.90;;;;;;5029507;28;20026;-78
2023/02/17 10:26:01;;;;;;;37.55;20.05;;;5.20;99.90;;;;;;5011091;28;19905;-78
2023/02/17 10:28:46;;;;;;;34.58;19.70;;;5.20;99.90;;;;;;5010317;28;20028;-78
2023/02/17 10:31:19;;;;;;;41.30;21.30;;;5.30;99.90;;;;;;5010942;28;20029;-78
2023/02/17 10:34:10;;;;;;;38.75;20.58;;;5.30;99.90;;;;;;5009807;28;20056;-78
2023/02/17 10:37:02;;;;;;;41.50;22.17;;;5.40;99.90;;;;;;5009668;28;20040;-78
2023/02/17 10:39:27;;;;;;;39.67;20.17;;;5.40;99.90;;;;;;5011132;28;20030;-81
2023/02/17 10:41:54;;;;;;;38.67;20.30;;;5.50;99.90;;;;;;5010718;28;20552;-81
2023/02/17 10:44:23;;;;;;;36.55;19.58;;;5.50;99.90;;;;;;5010660;28;20033;-81
2023/02/17 10:46:51;;;;;;;32.83;18.35;;;5.50;99.90;;;;;;5024943;28;20498;-81
2023/02/17 10:49:41;;;;;;;36.58;19.88;;;5.50;99.90;;;;;;5030553;28;20036;-81
2023/02/17 10:52:16;;;;;;;31.15;18.83;;;5.40;99.90;;;;;;5010329;28;20034;-81
2023/02/17 10:54:58;;;;;;;38.95;17.80;;;5.30;99.90;;;;;;5010834;28;20449;-81
2023/02/17 10:57:32;;;;;;;34.77;19.87;;;5.30;99.90;;;;;;5009325;28;20074;-81
2023/02/17 10:59:57;;;;;;;35.80;21.13;;;5.30;99.90;;;;;;5009950;28;20308;-81
2023/02/17 11:02:35;;;;;;;30.70;19.02;;;5.20;99.90;;;;;;5010899;28;20075;-80
2023/02/17 11:05:01;;;;;;;38.17;19.02;;;5.30;99.90;;;;;;5012605;28;20025;-81
2023/02/17 11:07:34;;;;;;;38.03;20.20;;;5.30;99.90;;;;;;5033226;28;20432;-81
2023/02/17 11:10:03;;;;;;;36.30;21.15;;;5.30;99.90;;;;;;5033104;28;20022;-81
2023/02/17 11:12:33;;;;;;;34.90;20.67;;;5.30;99.90;;;;;;5032804;28;20035;-81
2023/02/17 11:15:02;;;;;;;37.08;21.15;;;5.20;99.90;;;;;;5033962;28;20479;-81
2023/02/17 11:17:38;;;;;;;36.90;20.08;;;5.20;99.90;;;;;;5033708;28;20419;-81
2023/02/17 11:20:12;;;;;;;32.92;18.70;;;5.20;99.90;;;;;;5032400;28;20037;-81
2023/02/17 11:22:44;;;;;;;35.70;18.73;;;5.30;99.90;;;;;;5012700;28;20545;-81
2023/02/17 11:25:25;;;;;;;34.75;19.65;;;5.30;99.90;;;;;;5013496;28;20029;-81
2023/02/17 11:27:53;;;;;;;36.63;18.02;;;5.30;99.90;;;;;;5012302;28;20127;-81
2023/02/17 11:30:19;;;;;;;35.00;18.77;;;5.40;99.90;;;;;;5026415;28;20091;-81
2023/02/17 11:32:45;;;;;;;36.30;20.10;;;5.40;99.90;;;;;;5013524;28;20531;-81
2023/02/17 11:35:28;;;;;;;34.92;18.15;;;5.40;99.90;;;;;;5032830;28;20049;-81
2023/02/17 11:38:01;;;;;;;;;;;5.40;99.90;;;;;;5032907;28;20176;-82
2023/02/17 11:40:30;;;;;;;33.17;18.25;;;5.40;99.90;;;;;;5031348;28;19962;-81
2023/02/17 11:42:58;;;;;;;34.55;19.55;;;5.40;99.90;;;;;;5030207;28;20029;-81
2023/02/17 11:46:01;;;;;;;33.35;20.35;;;5.40;99.90;;;;;;5012978;28;20083;-81
2023/02/17 11:48:54;;;;;;;33.95;18.38;;;5.50;99.90;;;;;;5017229;28;20494;-81
2023/02/17 11:51:47;;;;;;;25.40;16.40;;;5.40;99.90;;;;;;5011896;28;20087;-81
2023/02/17 11:54:39;;;;;;;30.38;17.75;;;5.40;99.90;;;;;;5023495;28;20097;-81
2023/02/17 11:57:33;;;;;;;33.13;18.00;;;5.40;99.90;;;;;;5032538;28;20040;-81
2023/02/17 12:00:17;;;;;;;31.30;17.67;;;5.40;99.90;;;;;;5031065;28;20049;-81
2023/02/17 12:03:17;;;;;;;31.50;17.27;;;5.40;99.90;;;;;;5031138;28;20502;-80
2023/02/17 12:06:00;;;;;;;28.70;16.33;;;5.40;99.90;;;;;;5031035;28;20061;-81
2023/02/17 12:08:43;;;;;;;34.42;18.88;;;5.40;99.90;;;;;;5031969;28;20386;-82
2023/02/17 12:11:47;;;;;;;29.13;16.75;;;5.40;99.90;;;;;;5032295;28;20036;-81
2023/02/17 12:14:43;;;;;;;31.73;17.10;;;5.40;99.90;;;;;;4951960;29;20480;-81
2023/02/17 12:17:23;;;;;;;29.23;16.67;;;5.40;99.90;;;;;;4952039;28;20038;-81
2023/02/17 12:20:13;;;;;;;47.80;24.73;;;5.40;99.90;;;;;;5012088;28;20062;-81
2023/02/17 12:22:54;;;;;;;33.97;18.48;;;5.30;99.90;;;;;;5019514;28;20553;-81
2023/02/17 12:25:27;;;;;;;31.40;18.13;;;5.40;99.90;;;;;;5021151;28;20061;-80
2023/02/17 12:27:53;;;;;;;36.85;19.70;;;5.40;99.90;;;;;;5014496;28;20514;-80
2023/02/17 12:30:55;;;;;;;31.00;17.80;;;5.40;99.90;;;;;;5019861;28;20029;-80
2023/02/17 12:33:33;;;;;;;32.08;19.05;;;5.40;99.90;;;;;;5021632;28;20052;-81
2023/02/17 12:36:12;;;;;;;28.65;16.98;;;5.50;99.90;;;;;;5024546;28;20245;-81
2023/02/17 12:38:42;;;;;;;25.48;15.80;;;5.40;99.90;;;;;;5012120;28;20028;-81
2023/02/17 12:41:33;;;;;;;33.90;18.58;;;5.50;99.90;;;;;;5012287;28;20041;-81
2023/02/17 12:44:11;;;;;;;31.83;18.17;;;5.50;99.90;;;;;;5029745;28;20026;-81
2023/02/17 12:46:46;;;;;;;28.35;17.30;;;5.50;99.90;;;;;;5031971;28;20021;-81